createdAt,value
2018-12-26T13:39:48.716Z,14.63
2018-12-26T13:42:17.302Z,16.90
2018-12-26T13:44:45.783Z,11.93
2018-12-26T13:47:14.058Z,13.83
2018-12-26T13:49:43.439Z,11.77
2018-12-26T13:52:11.689Z,11.93
2018-12-26T13:54:40.322Z,13.63
2018-12-26T13:57:08.802Z,10.55
2018-12-26T13:59:37.252Z,14.03
2018-12-26T14:02:05.506Z,14.38
2018-12-26T14:04:33.766Z,12.82
2018-12-26T14:07:02.126Z,10.63
2018-12-26T14:09:30.375Z,13.35
2018-12-26T14:11:58.644Z,13.98
2018-12-26T14:14:27.147Z,12.05
2018-12-26T14:16:55.670Z,13.03
2018-12-26T14:19:23.919Z,12.67
2018-12-26T14:21:52.193Z,13.07
2018-12-26T14:24:20.636Z,10.10
2018-12-26T14:26:48.909Z,9.13
2018-12-26T14:29:17.155Z,11.97
2018-12-26T14:31:45.496Z,9.77
2018-12-26T14:34:13.739Z,8.47
2018-12-26T14:36:42.056Z,8.17
2018-12-26T14:39:10.304Z,8.97
2018-12-26T14:41:38.571Z,9.30
2018-12-26T14:44:06.817Z,7.50
2018-12-26T14:46:35.126Z,7.87
2018-12-26T14:49:03.367Z,9.23
2018-12-26T14:51:31.636Z,6.87
2018-12-26T14:53:59.949Z,9.23
2018-12-26T14:56:28.277Z,7.17
2018-12-26T14:58:56.518Z,8.00
2018-12-26T15:01:24.783Z,6.43
2018-12-26T15:03:53.075Z,7.17
2018-12-26T15:06:21.344Z,8.40
2018-12-26T15:08:49.661Z,9.77
2018-12-26T15:11:17.931Z,6.53
2018-12-26T15:13:46.176Z,8.00
2018-12-26T15:16:14.438Z,7.57
2018-12-26T15:18:42.685Z,6.57
2018-12-26T15:21:11.135Z,5.93
2018-12-26T15:23:39.376Z,6.97
2018-12-26T15:26:07.670Z,6.33
2018-12-26T15:28:35.919Z,7.30
2018-12-26T15:31:04.184Z,7.27
2018-12-26T15:33:32.432Z,7.70
2018-12-26T15:36:00.701Z,5.97
2018-12-26T15:38:28.945Z,6.97
2018-12-26T15:40:57.263Z,6.70
2018-12-26T15:43:25.509Z,7.13
2018-12-26T15:45:53.775Z,7.90
2018-12-26T15:48:22.016Z,6.63
2018-12-26T15:50:50.284Z,5.57
2018-12-26T15:53:18.526Z,7.50
2018-12-26T15:55:46.813Z,6.57
2018-12-26T15:58:15.055Z,8.73
2018-12-26T16:00:43.324Z,6.17
2018-12-26T16:03:11.801Z,6.70
2018-12-26T16:05:40.043Z,5.63
2018-12-26T16:08:08.310Z,6.53
2018-12-26T16:10:36.558Z,7.00
2018-12-26T16:13:04.859Z,7.40
2018-12-26T16:15:33.103Z,7.50
2018-12-26T16:18:01.372Z,6.10
2018-12-26T16:20:29.623Z,8.20
2018-12-26T16:22:57.885Z,8.57
2018-12-26T16:25:26.131Z,7.13
2018-12-26T16:27:55.184Z,7.77
2018-12-26T16:30:24.085Z,6.90
2018-12-26T16:34:57.656Z,7.63
2018-12-26T16:37:25.924Z,8.67
2018-12-26T16:39:54.171Z,13.00
